sensor_id;sensor_type;location;lat;lon;timestamp;P1;durP1;ratioP1;P2;durP2;ratioP2
59294;SDS011;45067;44.654;20.200;2023-08-17T00:00:02;19.35;;;17.15;;
59294;SDS011;45067;44.654;20.200;2023-08-17T00:02:29;20.02;;;15.98;;
59294;SDS011;45067;44.654;20.200;2023-08-17T00:04:56;18.90;;;15.88;;
59294;SDS011;45067;44.654;20.200;2023-08-17T00:07:22;18.67;;;16.00;;
59294;SDS011;45067;44.654;20.200;2023-08-17T00:09:48;18.23;;;15.98;;
59294;SDS011;45067;44.654;20.200;2023-08-17T00:12:14;17.45;;;15.48;;
59294;SDS011;45067;44.654;20.200;2023-08-17T00:14:40;19.60;;;16.50;;
59294;SDS011;45067;44.654;20.200;2023-08-17T00:17:06;18.67;;;15.68;;
59294;SDS011;45067;44.654;20.200;2023-08-17T00:19:32;18.35;;;16.27;;
59294;SDS011;45067;44.654;20.200;2023-08-17T00:21:58;21.35;;;17.13;;
59294;SDS011;45067;44.654;20.200;2023-08-17T00:24:24;18.15;;;16.17;;
59294;SDS011;45067;44.654;20.200;2023-08-17T00:26:50;25.25;;;17.48;;
59294;SDS011;45067;44.654;20.200;2023-08-17T00:29:16;18.13;;;16.25;;
59294;SDS011;45067;44.654;20.200;2023-08-17T00:31:43;17.60;;;15.70;;
59294;SDS011;45067;44.654;20.200;2023-08-17T00:34:09;18.65;;;16.05;;
59294;SDS011;45067;44.654;20.200;2023-08-17T00:36:35;18.85;;;16.50;;
59294;SDS011;45067;44.654;20.200;2023-08-17T00:39:01;20.23;;;15.88;;
59294;SDS011;45067;44.654;20.200;2023-08-17T00:41:27;20.27;;;16.27;;
59294;SDS011;45067;44.654;20.200;2023-08-17T00:43:54;19.55;;;17.45;;
59294;SDS011;45067;44.654;20.200;2023-08-17T00:46:20;22.02;;;18.33;;
59294;SDS011;45067;44.654;20.200;2023-08-17T00:48:48;23.35;;;18.67;;
59294;SDS011;45067;44.654;20.200;2023-08-17T00:51:14;21.42;;;18.90;;
59294;SDS011;45067;44.654;20.200;2023-08-17T00:53:40;20.05;;;17.95;;
59294;SDS011;45067;44.654;20.200;2023-08-17T00:56:07;21.23;;;18.23;;
59294;SDS011;45067;44.654;20.200;2023-08-17T00:58:33;23.27;;;18.30;;
59294;SDS011;45067;44.654;20.200;2023-08-17T01:01:00;23.05;;;17.73;;
59294;SDS011;45067;44.654;20.200;2023-08-17T01:03:27;23.80;;;19.17;;
59294;SDS011;45067;44.654;20.200;2023-08-17T01:05:57;23.27;;;17.98;;
59294;SDS011;45067;44.654;20.200;2023-08-17T01:08:23;21.77;;;17.25;;
59294;SDS011;45067;44.654;20.200;2023-08-17T01:11:00;26.60;;;19.08;;
59294;SDS011;45067;44.654;20.200;2023-08-17T01:13:34;32.75;;;20.65;;
59294;SDS011;45067;44.654;20.200;2023-08-17T01:16:01;27.92;;;19.80;;
59294;SDS011;45067;44.654;20.200;2023-08-17T01:18:29;25.40;;;20.30;;
59294;SDS011;45067;44.654;20.200;2023-08-17T01:20:56;28.83;;;19.48;;
59294;SDS011;45067;44.654;20.200;2023-08-17T01:23:22;22.48;;;18.17;;
59294;SDS011;45067;44.654;20.200;2023-08-17T01:25:49;22.98;;;18.15;;
59294;SDS011;45067;44.654;20.200;2023-08-17T01:28:15;27.42;;;21.08;;
59294;SDS011;45067;44.654;20.200;2023-08-17T01:30:47;23.67;;;19.27;;
59294;SDS011;45067;44.654;20.200;2023-08-17T01:33:27;25.83;;;19.63;;
59294;SDS011;45067;44.654;20.200;2023-08-17T01:35:56;26.75;;;19.33;;
59294;SDS011;45067;44.654;20.200;2023-08-17T01:40:50;26.67;;;20.15;;
59294;SDS011;45067;44.654;20.200;2023-08-17T01:43:20;22.75;;;17.13;;
59294;SDS011;45067;44.654;20.200;2023-08-17T01:45:46;27.33;;;19.17;;
59294;SDS011;45067;44.654;20.200;2023-08-17T01:48:12;23.77;;;18.98;;
59294;SDS011;45067;44.654;20.200;2023-08-17T01:50:38;21.85;;;17.15;;
59294;SDS011;45067;44.654;20.200;2023-08-17T01:53:05;21.95;;;17.00;;
59294;SDS011;45067;44.654;20.200;2023-08-17T01:55:31;19.25;;;16.10;;
59294;SDS011;45067;44.654;20.200;2023-08-17T01:57:57;19.67;;;15.77;;
59294;SDS011;45067;44.654;20.200;2023-08-17T02:00:23;16.90;;;15.07;;
59294;SDS011;45067;44.654;20.200;2023-08-17T02:02:49;20.38;;;16.30;;
59294;SDS011;45067;44.654;20.200;2023-08-17T02:08:19;17.45;;;15.65;;
59294;SDS011;45067;44.654;20.200;2023-08-17T02:10:45;18.88;;;15.25;;
59294;SDS011;45067;44.654;20.200;2023-08-17T02:13:11;17.95;;;14.93;;
59294;SDS011;45067;44.654;20.200;2023-08-17T02:15:38;18.60;;;15.95;;
59294;SDS011;45067;44.654;20.200;2023-08-17T02:18:04;19.00;;;17.00;;
59294;SDS011;45067;44.654;20.200;2023-08-17T02:20:30;20.25;;;18.17;;
59294;SDS011;45067;44.654;20.200;2023-08-17T02:22:57;18.73;;;15.55;;
59294;SDS011;45067;44.654;20.200;2023-08-17T02:25:23;20.00;;;18.00;;
59294;SDS011;45067;44.654;20.200;2023-08-17T02:27:49;30.77;;;23.58;;
59294;SDS011;45067;44.654;20.200;2023-08-17T02:30:15;68.53;;;26.05;;
59294;SDS011;45067;44.654;20.200;2023-08-17T02:32:41;67.50;;;26.13;;
59294;SDS011;45067;44.654;20.200;2023-08-17T02:38:10;20.50;;;17.95;;
59294;SDS011;45067;44.654;20.200;2023-08-17T02:40:37;25.48;;;19.23;;
59294;SDS011;45067;44.654;20.200;2023-08-17T02:43:03;20.42;;;18.08;;
59294;SDS011;45067;44.654;20.200;2023-08-17T02:45:29;27.67;;;19.67;;
59294;SDS011;45067;44.654;20.200;2023-08-17T02:47:55;43.30;;;20.55;;
59294;SDS011;45067;44.654;20.200;2023-08-17T02:53:25;25.23;;;20.10;;
59294;SDS011;45067;44.654;20.200;2023-08-17T02:55:51;27.42;;;19.45;;
59294;SDS011;45067;44.654;20.200;2023-08-17T02:58:18;23.95;;;19.35;;
59294;SDS011;45067;44.654;20.200;2023-08-17T03:00:44;26.08;;;21.17;;
59294;SDS011;45067;44.654;20.200;2023-08-17T03:03:10;21.35;;;19.15;;
59294;SDS011;45067;44.654;20.200;2023-08-17T03:08:40;41.75;;;21.40;;
59294;SDS011;45067;44.654;20.200;2023-08-17T03:11:06;32.53;;;21.48;;
59294;SDS011;45067;44.654;20.200;2023-08-17T03:13:34;51.03;;;22.83;;
59294;SDS011;45067;44.654;20.200;2023-08-17T03:16:00;35.78;;;22.08;;
59294;SDS011;45067;44.654;20.200;2023-08-17T03:18:26;48.33;;;22.40;;
59294;SDS011;45067;44.654;20.200;2023-08-17T03:20:52;52.63;;;22.77;;
59294;SDS011;45067;44.654;20.200;2023-08-17T03:23:18;53.10;;;23.40;;
59294;SDS011;45067;44.654;20.200;2023-08-17T03:25:45;40.50;;;23.88;;
59294;SDS011;45067;44.654;20.200;2023-08-17T03:28:11;67.03;;;23.23;;
59294;SDS011;45067;44.654;20.200;2023-08-17T03:30:37;50.58;;;23.17;;
59294;SDS011;45067;44.654;20.200;2023-08-17T03:33:03;76.63;;;26.40;;
59294;SDS011;45067;44.654;20.200;2023-08-17T03:38:33;54.33;;;26.13;;
59294;SDS011;45067;44.654;20.200;2023-08-17T03:40:59;66.90;;;27.05;;
59294;SDS011;45067;44.654;20.200;2023-08-17T03:43:26;48.35;;;26.13;;
59294;SDS011;45067;44.654;20.200;2023-08-17T03:45:52;57.88;;;26.45;;
59294;SDS011;45067;44.654;20.200;2023-08-17T03:48:18;38.10;;;24.45;;
59294;SDS011;45067;44.654;20.200;2023-08-17T03:53:50;77.95;;;27.77;;
59294;SDS011;45067;44.654;20.200;2023-08-17T03:56:16;58.10;;;27.58;;
59294;SDS011;45067;44.654;20.200;2023-08-17T03:58:42;48.13;;;27.00;;
59294;SDS011;45067;44.654;20.200;2023-08-17T04:01:08;48.58;;;26.08;;
59294;SDS011;45067;44.654;20.200;2023-08-17T04:03:36;61.95;;;27.40;;
59294;SDS011;45067;44.654;20.200;2023-08-17T04:06:05;100.45;;;30.83;;
59294;SDS011;45067;44.654;20.200;2023-08-17T04:08:32;70.43;;;29.55;;
59294;SDS011;45067;44.654;20.200;2023-08-17T04:10:58;93.72;;;33.03;;
59294;SDS011;45067;44.654;20.200;2023-08-17T04:13:24;74.90;;;30.83;;
59294;SDS011;45067;44.654;20.200;2023-08-17T04:16:11;134.75;;;32.95;;
59294;SDS011;45067;44.654;20.200;2023-08-17T04:18:37;94.38;;;31.60;;
59294;SDS011;45067;44.654;20.200;2023-08-17T04:21:03;99.32;;;32.88;;
59294;SDS011;45067;44.654;20.200;2023-08-17T04:23:29;109.78;;;32.15;;
59294;SDS011;45067;44.654;20.200;2023-08-17T04:25:56;129.18;;;34.08;;
59294;SDS011;45067;44.654;20.200;2023-08-17T04:28:23;74.30;;;33.40;;
59294;SDS011;45067;44.654;20.200;2023-08-17T04:30:49;150.13;;;34.35;;
59294;SDS011;45067;44.654;20.200;2023-08-17T04:33:15;150.20;;;35.50;;
59294;SDS011;45067;44.654;20.200;2023-08-17T04:35:41;87.93;;;31.95;;
59294;SDS011;45067;44.654;20.200;2023-08-17T04:38:08;97.25;;;32.70;;
59294;SDS011;45067;44.654;20.200;2023-08-17T04:40:34;64.05;;;31.60;;
59294;SDS011;45067;44.654;20.200;2023-08-17T04:43:00;114.38;;;33.63;;
59294;SDS011;45067;44.654;20.200;2023-08-17T04:45:27;85.47;;;32.10;;
59294;SDS011;45067;44.654;20.200;2023-08-17T04:47:53;76.65;;;31.17;;
59294;SDS011;45067;44.654;20.200;2023-08-17T04:50:20;100.43;;;34.17;;
59294;SDS011;45067;44.654;20.200;2023-08-17T04:52:48;72.38;;;34.58;;
59294;SDS011;45067;44.654;20.200;2023-08-17T04:55:14;112.20;;;37.42;;
59294;SDS011;45067;44.654;20.200;2023-08-17T04:57:40;86.88;;;37.15;;
59294;SDS011;45067;44.654;20.200;2023-08-17T05:00:06;89.20;;;34.53;;
59294;SDS011;45067;44.654;20.200;2023-08-17T05:02:34;89.35;;;34.85;;
59294;SDS011;45067;44.654;20.200;2023-08-17T05:05:03;87.75;;;33.90;;
59294;SDS011;45067;44.654;20.200;2023-08-17T05:07:29;83.68;;;33.88;;
59294;SDS011;45067;44.654;20.200;2023-08-17T05:09:55;90.75;;;34.13;;
59294;SDS011;45067;44.654;20.200;2023-08-17T05:12:22;57.17;;;28.42;;
59294;SDS011;45067;44.654;20.200;2023-08-17T05:14:48;89.82;;;31.88;;
59294;SDS011;45067;44.654;20.200;2023-08-17T05:17:20;55.00;;;32.00;;
59294;SDS011;45067;44.654;20.200;2023-08-17T05:19:47;57.78;;;31.35;;
59294;SDS011;45067;44.654;20.200;2023-08-17T05:22:14;59.58;;;30.40;;
59294;SDS011;45067;44.654;20.200;2023-08-17T05:24:40;49.30;;;29.00;;
59294;SDS011;45067;44.654;20.200;2023-08-17T05:27:07;100.88;;;30.67;;
59294;SDS011;45067;44.654;20.200;2023-08-17T05:29:35;62.70;;;31.87;;
59294;SDS011;45067;44.654;20.200;2023-08-17T05:32:17;60.40;;;30.98;;
59294;SDS011;45067;44.654;20.200;2023-08-17T05:34:43;44.67;;;31.05;;
59294;SDS011;45067;44.654;20.200;2023-08-17T05:37:09;122.43;;;32.10;;
59294;SDS011;45067;44.654;20.200;2023-08-17T05:39:35;60.63;;;28.92;;
59294;SDS011;45067;44.654;20.200;2023-08-17T05:42:01;44.85;;;26.35;;
59294;SDS011;45067;44.654;20.200;2023-08-17T05:44:27;56.25;;;28.20;;
59294;SDS011;45067;44.654;20.200;2023-08-17T05:46:53;54.17;;;27.95;;
59294;SDS011;45067;44.654;20.200;2023-08-17T05:49:19;46.60;;;26.25;;
59294;SDS011;45067;44.654;20.200;2023-08-17T05:51:45;49.95;;;28.50;;
59294;SDS011;45067;44.654;20.200;2023-08-17T05:54:11;37.45;;;27.45;;
59294;SDS011;45067;44.654;20.200;2023-08-17T05:56:38;48.35;;;30.25;;
59294;SDS011;45067;44.654;20.200;2023-08-17T05:59:09;41.83;;;28.40;;
59294;SDS011;45067;44.654;20.200;2023-08-17T06:01:35;44.28;;;29.90;;
59294;SDS011;45067;44.654;20.200;2023-08-17T06:04:02;53.95;;;32.28;;
59294;SDS011;45067;44.654;20.200;2023-08-17T06:06:29;61.95;;;31.90;;
59294;SDS011;45067;44.654;20.200;2023-08-17T06:08:55;53.60;;;29.02;;
59294;SDS011;45067;44.654;20.200;2023-08-17T06:11:21;55.88;;;29.23;;
59294;SDS011;45067;44.654;20.200;2023-08-17T06:13:48;38.13;;;27.83;;
59294;SDS011;45067;44.654;20.200;2023-08-17T06:16:14;90.30;;;29.05;;
59294;SDS011;45067;44.654;20.200;2023-08-17T06:18:41;31.30;;;25.65;;
59294;SDS011;45067;44.654;20.200;2023-08-17T06:21:07;34.42;;;25.27;;
59294;SDS011;45067;44.654;20.200;2023-08-17T06:23:33;37.90;;;26.95;;
59294;SDS011;45067;44.654;20.200;2023-08-17T06:25:59;35.83;;;26.33;;
59294;SDS011;45067;44.654;20.200;2023-08-17T06:28:26;42.05;;;27.77;;
59294;SDS011;45067;44.654;20.200;2023-08-17T06:30:52;32.17;;;25.60;;
59294;SDS011;45067;44.654;20.200;2023-08-17T06:33:19;30.80;;;24.70;;
59294;SDS011;45067;44.654;20.200;2023-08-17T06:35:45;50.05;;;26.48;;
59294;SDS011;45067;44.654;20.200;2023-08-17T06:38:11;35.70;;;27.55;;
59294;SDS011;45067;44.654;20.200;2023-08-17T06:40:37;37.70;;;28.58;;
59294;SDS011;45067;44.654;20.200;2023-08-17T06:43:03;35.35;;;28.42;;
59294;SDS011;45067;44.654;20.200;2023-08-17T06:45:33;33.35;;;27.88;;
59294;SDS011;45067;44.654;20.200;2023-08-17T06:47:59;31.47;;;25.77;;
59294;SDS011;45067;44.654;20.200;2023-08-17T06:50:25;31.38;;;26.15;;
59294;SDS011;45067;44.654;20.200;2023-08-17T06:52:52;29.88;;;25.15;;
59294;SDS011;45067;44.654;20.200;2023-08-17T06:55:18;25.35;;;21.58;;
59294;SDS011;45067;44.654;20.200;2023-08-17T06:57:44;25.17;;;21.42;;
59294;SDS011;45067;44.654;20.200;2023-08-17T07:00:11;23.45;;;20.08;;
59294;SDS011;45067;44.654;20.200;2023-08-17T07:02:37;27.58;;;23.13;;
59294;SDS011;45067;44.654;20.200;2023-08-17T07:05:16;23.55;;;20.95;;
59294;SDS011;45067;44.654;20.200;2023-08-17T07:07:43;23.42;;;20.98;;
59294;SDS011;45067;44.654;20.200;2023-08-17T07:10:10;23.00;;;20.55;;
59294;SDS011;45067;44.654;20.200;2023-08-17T07:12:36;25.77;;;21.77;;
59294;SDS011;45067;44.654;20.200;2023-08-17T07:15:03;25.30;;;22.60;;
59294;SDS011;45067;44.654;20.200;2023-08-17T07:17:29;22.05;;;19.23;;
59294;SDS011;45067;44.654;20.200;2023-08-17T07:19:56;24.13;;;20.75;;
59294;SDS011;45067;44.654;20.200;2023-08-17T07:22:22;24.05;;;19.90;;
59294;SDS011;45067;44.654;20.200;2023-08-17T07:24:49;21.15;;;18.77;;
59294;SDS011;45067;44.654;20.200;2023-08-17T07:27:15;25.27;;;22.40;;
59294;SDS011;45067;44.654;20.200;2023-08-17T07:29:41;25.25;;;20.48;;
59294;SDS011;45067;44.654;20.200;2023-08-17T07:32:08;23.33;;;21.02;;
59294;SDS011;45067;44.654;20.200;2023-08-17T07:34:36;26.48;;;22.10;;
59294;SDS011;45067;44.654;20.200;2023-08-17T07:37:03;27.08;;;24.17;;
59294;SDS011;45067;44.654;20.200;2023-08-17T07:39:30;30.05;;;26.63;;
59294;SDS011;45067;44.654;20.200;2023-08-17T07:41:56;33.88;;;30.38;;
59294;SDS011;45067;44.654;20.200;2023-08-17T07:44:22;33.42;;;28.75;;
59294;SDS011;45067;44.654;20.200;2023-08-17T07:49:31;34.30;;;30.73;;
59294;SDS011;45067;44.654;20.200;2023-08-17T07:52:07;31.42;;;27.08;;
59294;SDS011;45067;44.654;20.200;2023-08-17T07:54:34;27.42;;;24.42;;
59294;SDS011;45067;44.654;20.200;2023-08-17T07:57:00;25.90;;;22.73;;
59294;SDS011;45067;44.654;20.200;2023-08-17T07:59:33;26.98;;;24.08;;
59294;SDS011;45067;44.654;20.200;2023-08-17T08:02:02;28.92;;;24.75;;
59294;SDS011;45067;44.654;20.200;2023-08-17T08:04:28;27.00;;;24.13;;
59294;SDS011;45067;44.654;20.200;2023-08-17T08:06:58;31.20;;;25.42;;
59294;SDS011;45067;44.654;20.200;2023-08-17T08:09:24;28.23;;;24.90;;
59294;SDS011;45067;44.654;20.200;2023-08-17T08:11:51;30.55;;;25.10;;
59294;SDS011;45067;44.654;20.200;2023-08-17T08:14:17;28.92;;;24.48;;
59294;SDS011;45067;44.654;20.200;2023-08-17T08:16:43;31.38;;;25.83;;
59294;SDS011;45067;44.654;20.200;2023-08-17T08:19:10;29.77;;;25.02;;
59294;SDS011;45067;44.654;20.200;2023-08-17T08:21:36;29.83;;;22.60;;
59294;SDS011;45067;44.654;20.200;2023-08-17T08:24:02;28.27;;;25.27;;
59294;SDS011;45067;44.654;20.200;2023-08-17T08:26:32;30.60;;;24.42;;
59294;SDS011;45067;44.654;20.200;2023-08-17T08:28:58;29.92;;;26.40;;
59294;SDS011;45067;44.654;20.200;2023-08-17T08:31:24;26.67;;;23.80;;
59294;SDS011;45067;44.654;20.200;2023-08-17T08:33:50;27.88;;;22.73;;
59294;SDS011;45067;44.654;20.200;2023-08-17T08:36:18;26.30;;;23.23;;
59294;SDS011;45067;44.654;20.200;2023-08-17T08:38:44;22.05;;;19.40;;
59294;SDS011;45067;44.654;20.200;2023-08-17T08:41:10;23.17;;;20.42;;
59294;SDS011;45067;44.654;20.200;2023-08-17T08:43:48;23.63;;;20.63;;
59294;SDS011;45067;44.654;20.200;2023-08-17T08:46:17;23.52;;;19.90;;
59294;SDS011;45067;44.654;20.200;2023-08-17T08:48:44;23.05;;;19.83;;
59294;SDS011;45067;44.654;20.200;2023-08-17T08:51:11;25.63;;;20.48;;
59294;SDS011;45067;44.654;20.200;2023-08-17T08:53:44;29.80;;;21.40;;
59294;SDS011;45067;44.654;20.200;2023-08-17T08:56:13;24.63;;;21.77;;
59294;SDS011;45067;44.654;20.200;2023-08-17T08:58:41;24.33;;;20.42;;
59294;SDS011;45067;44.654;20.200;2023-08-17T09:01:08;23.38;;;19.73;;
59294;SDS011;45067;44.654;20.200;2023-08-17T09:03:34;22.73;;;18.98;;
59294;SDS011;45067;44.654;20.200;2023-08-17T09:06:01;22.10;;;19.20;;
59294;SDS011;45067;44.654;20.200;2023-08-17T09:08:30;23.83;;;21.33;;
59294;SDS011;45067;44.654;20.200;2023-08-17T09:10:57;26.02;;;22.48;;
59294;SDS011;45067;44.654;20.200;2023-08-17T09:13:23;21.05;;;18.83;;
59294;SDS011;45067;44.654;20.200;2023-08-17T09:15:49;22.55;;;18.67;;
59294;SDS011;45067;44.654;20.200;2023-08-17T09:18:15;19.60;;;17.15;;
59294;SDS011;45067;44.654;20.200;2023-08-17T09:20:43;20.35;;;17.27;;
59294;SDS011;45067;44.654;20.200;2023-08-17T09:23:14;20.13;;;18.00;;
59294;SDS011;45067;44.654;20.200;2023-08-17T09:25:40;22.80;;;17.58;;
59294;SDS011;45067;44.654;20.200;2023-08-17T09:28:11;19.98;;;16.67;;
59294;SDS011;45067;44.654;20.200;2023-08-17T09:33:17;22.98;;;20.58;;
59294;SDS011;45067;44.654;20.200;2023-08-17T09:35:43;20.10;;;16.73;;
59294;SDS011;45067;44.654;20.200;2023-08-17T09:38:09;17.95;;;16.00;;
59294;SDS011;45067;44.654;20.200;2023-08-17T09:40:36;21.55;;;17.58;;
59294;SDS011;45067;44.654;20.200;2023-08-17T09:43:02;19.70;;;15.30;;
59294;SDS011;45067;44.654;20.200;2023-08-17T09:45:28;22.10;;;19.75;;
59294;SDS011;45067;44.654;20.200;2023-08-17T09:47:58;18.88;;;15.35;;
59294;SDS011;45067;44.654;20.200;2023-08-17T09:50:24;20.20;;;14.23;;
59294;SDS011;45067;44.654;20.200;2023-08-17T09:52:53;18.92;;;13.95;;
59294;SDS011;45067;44.654;20.200;2023-08-17T09:55:20;20.25;;;13.95;;
59294;SDS011;45067;44.654;20.200;2023-08-17T09:57:47;13.77;;;12.27;;
59294;SDS011;45067;44.654;20.200;2023-08-17T10:00:14;15.30;;;13.25;;
59294;SDS011;45067;44.654;20.200;2023-08-17T10:02:40;17.23;;;15.43;;
59294;SDS011;45067;44.654;20.200;2023-08-17T10:05:08;15.02;;;13.43;;
59294;SDS011;45067;44.654;20.200;2023-08-17T10:07:34;17.13;;;13.15;;
59294;SDS011;45067;44.654;20.200;2023-08-17T10:10:03;13.00;;;11.55;;
59294;SDS011;45067;44.654;20.200;2023-08-17T10:12:31;12.75;;;11.20;;
59294;SDS011;45067;44.654;20.200;2023-08-17T10:14:59;12.90;;;11.60;;
59294;SDS011;45067;44.654;20.200;2023-08-17T10:17:30;16.30;;;12.88;;
59294;SDS011;45067;44.654;20.200;2023-08-17T10:19:57;14.18;;;12.52;;
59294;SDS011;45067;44.654;20.200;2023-08-17T10:24:49;14.50;;;13.00;;
59294;SDS011;45067;44.654;20.200;2023-08-17T10:27:18;14.30;;;12.75;;
59294;SDS011;45067;44.654;20.200;2023-08-17T10:29:44;14.75;;;13.18;;
59294;SDS011;45067;44.654;20.200;2023-08-17T10:32:11;14.52;;;13.07;;
59294;SDS011;45067;44.654;20.200;2023-08-17T10:34:38;14.70;;;13.18;;
59294;SDS011;45067;44.654;20.200;2023-08-17T10:37:05;15.15;;;13.65;;
59294;SDS011;45067;44.654;20.200;2023-08-17T10:39:31;14.38;;;12.95;;
59294;SDS011;45067;44.654;20.200;2023-08-17T10:41:59;17.08;;;14.50;;
59294;SDS011;45067;44.654;20.200;2023-08-17T10:44:43;17.92;;;14.50;;
59294;SDS011;45067;44.654;20.200;2023-08-17T10:47:23;20.23;;;18.25;;
59294;SDS011;45067;44.654;20.200;2023-08-17T10:49:50;18.17;;;16.27;;
59294;SDS011;45067;44.654;20.200;2023-08-17T10:52:24;23.58;;;18.95;;
59294;SDS011;45067;44.654;20.200;2023-08-17T10:54:51;27.90;;;24.30;;
59294;SDS011;45067;44.654;20.200;2023-08-17T10:57:30;16.10;;;13.95;;
59294;SDS011;45067;44.654;20.200;2023-08-17T11:00:16;22.90;;;18.60;;
59294;SDS011;45067;44.654;20.200;2023-08-17T11:02:50;20.83;;;17.67;;
59294;SDS011;45067;44.654;20.200;2023-08-17T11:08:01;17.25;;;15.55;;
59294;SDS011;45067;44.654;20.200;2023-08-17T11:10:28;17.45;;;15.63;;
59294;SDS011;45067;44.654;20.200;2023-08-17T11:12:55;16.92;;;15.13;;
59294;SDS011;45067;44.654;20.200;2023-08-17T11:15:25;21.13;;;19.00;;
59294;SDS011;45067;44.654;20.200;2023-08-17T11:17:51;19.23;;;17.42;;
59294;SDS011;45067;44.654;20.200;2023-08-17T11:20:18;17.98;;;16.10;;
59294;SDS011;45067;44.654;20.200;2023-08-17T11:22:47;18.07;;;15.50;;
59294;SDS011;45067;44.654;20.200;2023-08-17T11:25:13;17.80;;;16.10;;
59294;SDS011;45067;44.654;20.200;2023-08-17T11:27:40;16.73;;;15.13;;
59294;SDS011;45067;44.654;20.200;2023-08-17T11:30:07;18.15;;;15.80;;
59294;SDS011;45067;44.654;20.200;2023-08-17T11:32:33;16.45;;;14.82;;
59294;SDS011;45067;44.654;20.200;2023-08-17T11:35:00;17.23;;;15.48;;
59294;SDS011;45067;44.654;20.200;2023-08-17T11:37:27;17.30;;;15.48;;
59294;SDS011;45067;44.654;20.200;2023-08-17T11:39:53;17.35;;;15.65;;
59294;SDS011;45067;44.654;20.200;2023-08-17T11:42:19;17.02;;;15.30;;
59294;SDS011;45067;44.654;20.200;2023-08-17T11:44:48;17.75;;;15.23;;
59294;SDS011;45067;44.654;20.200;2023-08-17T11:47:14;23.65;;;16.98;;
59294;SDS011;45067;44.654;20.200;2023-08-17T11:49:41;18.35;;;15.73;;
59294;SDS011;45067;44.654;20.200;2023-08-17T11:52:09;23.25;;;20.75;;
59294;SDS011;45067;44.654;20.200;2023-08-17T11:54:39;20.77;;;18.10;;
59294;SDS011;45067;44.654;20.200;2023-08-17T11:57:05;23.63;;;21.17;;
59294;SDS011;45067;44.654;20.200;2023-08-17T11:59:31;17.05;;;14.65;;
59294;SDS011;45067;44.654;20.200;2023-08-17T12:02:00;31.13;;;28.05;;
59294;SDS011;45067;44.654;20.200;2023-08-17T12:04:26;18.85;;;16.58;;
59294;SDS011;45067;44.654;20.200;2023-08-17T12:07:02;25.30;;;22.80;;
59294;SDS011;45067;44.654;20.200;2023-08-17T12:09:28;19.73;;;17.65;;
59294;SDS011;45067;44.654;20.200;2023-08-17T12:11:58;17.00;;;14.25;;
59294;SDS011;45067;44.654;20.200;2023-08-17T12:14:25;22.58;;;15.98;;
59294;SDS011;45067;44.654;20.200;2023-08-17T12:16:51;14.27;;;12.77;;
59294;SDS011;45067;44.654;20.200;2023-08-17T12:19:21;14.05;;;12.65;;
59294;SDS011;45067;44.654;20.200;2023-08-17T12:22:02;15.45;;;12.90;;
59294;SDS011;45067;44.654;20.200;2023-08-17T12:24:28;15.18;;;13.50;;
59294;SDS011;45067;44.654;20.200;2023-08-17T12:26:56;15.82;;;14.20;;
59294;SDS011;45067;44.654;20.200;2023-08-17T12:29:23;14.70;;;13.20;;
59294;SDS011;45067;44.654;20.200;2023-08-17T12:31:51;14.38;;;13.07;;
59294;SDS011;45067;44.654;20.200;2023-08-17T12:34:17;16.45;;;14.13;;
59294;SDS011;45067;44.654;20.200;2023-08-17T12:36:43;16.33;;;12.48;;
59294;SDS011;45067;44.654;20.200;2023-08-17T12:39:10;17.13;;;13.82;;
59294;SDS011;45067;44.654;20.200;2023-08-17T12:41:36;15.63;;;14.00;;
59294;SDS011;45067;44.654;20.200;2023-08-17T12:44:02;17.23;;;14.38;;
59294;SDS011;45067;44.654;20.200;2023-08-17T12:46:28;19.83;;;17.77;;
59294;SDS011;45067;44.654;20.200;2023-08-17T12:48:57;15.65;;;14.05;;
59294;SDS011;45067;44.654;20.200;2023-08-17T12:51:24;16.42;;;14.73;;
59294;SDS011;45067;44.654;20.200;2023-08-17T12:53:50;17.80;;;15.88;;
59294;SDS011;45067;44.654;20.200;2023-08-17T12:56:16;19.42;;;13.13;;
59294;SDS011;45067;44.654;20.200;2023-08-17T12:58:42;14.35;;;12.85;;
59294;SDS011;45067;44.654;20.200;2023-08-17T13:01:09;15.10;;;13.52;;
59294;SDS011;45067;44.654;20.200;2023-08-17T13:03:35;15.80;;;14.35;;
59294;SDS011;45067;44.654;20.200;2023-08-17T13:06:01;19.05;;;17.15;;
59294;SDS011;45067;44.654;20.200;2023-08-17T13:08:27;16.33;;;14.60;;
59294;SDS011;45067;44.654;20.200;2023-08-17T13:10:54;15.57;;;13.95;;
59294;SDS011;45067;44.654;20.200;2023-08-17T13:13:20;16.20;;;14.18;;
59294;SDS011;45067;44.654;20.200;2023-08-17T13:15:52;20.02;;;14.25;;
59294;SDS011;45067;44.654;20.200;2023-08-17T13:18:27;16.73;;;15.00;;
59294;SDS011;45067;44.654;20.200;2023-08-17T13:20:54;16.83;;;12.95;;
59294;SDS011;45067;44.654;20.200;2023-08-17T13:23:20;15.30;;;13.20;;
59294;SDS011;45067;44.654;20.200;2023-08-17T13:25:47;19.00;;;17.05;;
59294;SDS011;45067;44.654;20.200;2023-08-17T13:28:13;19.00;;;17.17;;
59294;SDS011;45067;44.654;20.200;2023-08-17T13:30:39;17.52;;;15.73;;
59294;SDS011;45067;44.654;20.200;2023-08-17T13:33:05;15.57;;;13.98;;
59294;SDS011;45067;44.654;20.200;2023-08-17T13:35:32;17.90;;;15.60;;
59294;SDS011;45067;44.654;20.200;2023-08-17T13:37:58;20.25;;;17.42;;
59294;SDS011;45067;44.654;20.200;2023-08-17T13:40:24;20.52;;;16.45;;
59294;SDS011;45067;44.654;20.200;2023-08-17T13:42:50;18.60;;;16.15;;
59294;SDS011;45067;44.654;20.200;2023-08-17T13:45:16;18.20;;;16.13;;
59294;SDS011;45067;44.654;20.200;2023-08-17T13:47:43;20.88;;;18.42;;
59294;SDS011;45067;44.654;20.200;2023-08-17T13:50:12;18.38;;;16.17;;
59294;SDS011;45067;44.654;20.200;2023-08-17T13:52:38;16.48;;;14.73;;
59294;SDS011;45067;44.654;20.200;2023-08-17T13:55:07;22.60;;;18.83;;
59294;SDS011;45067;44.654;20.200;2023-08-17T13:57:33;19.02;;;17.02;;
59294;SDS011;45067;44.654;20.200;2023-08-17T13:59:59;17.10;;;15.45;;
59294;SDS011;45067;44.654;20.200;2023-08-17T14:02:25;16.75;;;15.15;;
59294;SDS011;45067;44.654;20.200;2023-08-17T14:04:54;19.25;;;17.20;;
59294;SDS011;45067;44.654;20.200;2023-08-17T14:07:21;14.75;;;13.18;;
59294;SDS011;45067;44.654;20.200;2023-08-17T14:09:47;15.27;;;13.68;;
59294;SDS011;45067;44.654;20.200;2023-08-17T14:12:13;18.70;;;13.80;;
59294;SDS011;45067;44.654;20.200;2023-08-17T14:14:39;14.70;;;12.70;;
59294;SDS011;45067;44.654;20.200;2023-08-17T14:17:05;15.45;;;13.85;;
59294;SDS011;45067;44.654;20.200;2023-08-17T14:19:31;18.27;;;16.58;;
59294;SDS011;45067;44.654;20.200;2023-08-17T14:21:57;17.08;;;14.30;;
59294;SDS011;45067;44.654;20.200;2023-08-17T14:24:26;16.52;;;14.93;;
59294;SDS011;45067;44.654;20.200;2023-08-17T14:26:52;23.67;;;21.17;;
59294;SDS011;45067;44.654;20.200;2023-08-17T14:29:18;19.58;;;17.63;;
59294;SDS011;45067;44.654;20.200;2023-08-17T14:31:44;19.67;;;17.52;;
59294;SDS011;45067;44.654;20.200;2023-08-17T14:34:10;21.63;;;18.88;;
59294;SDS011;45067;44.654;20.200;2023-08-17T14:36:36;24.02;;;19.65;;
59294;SDS011;45067;44.654;20.200;2023-08-17T14:39:03;22.60;;;17.23;;